Aeroporto :
LOGIN :

Iscrizione | Disclaimer

   EN    FR    IT 

 










Sommario :    VFR   VFR Marginale   IFR   IFR Intensivo   IFR Molto Intensivo
Visibilità : 
Base nubi : 
>= 8 km
>= 3000ft
5 / 8 km
1000 / 3000 ft
1500m / 5 km
500 / 1000 ft
800 / 1500m
200 / 500 ft
< 800m
< 200 ft
Simboli :   Temporali  Nebbia  Neve Forte  Precipitazioni Forti  Vento > 20 kt
SIGMETs :   Varie  Temporali  Ghiacco  Turbolenza  Onda orograficha  Ceneri Vulcaniche






- Altitudine del aeroporto : 174 ft
- Codice IATA : RYG


ENRY - Moss , Rygge

ULTIMO METAR :
  • 142150Z 35002KT 2300 BR OVC005 03/02 Q1016

METARs OBSOLETI :
  • 142120Z 01003KT 3100 -DZ BKN004 OVC006 03/02 Q1016
  • 142020Z 06004KT 3300 BR VV004 03/02 Q1015
  • 141950Z 04004KT 4200 BR VV004 03/02 Q1015
  • 141920Z 05004KT 8000 OVC005 03/02 Q1014

TAF AMD TAF ENRY
Valido dal 14 a 20 ore il 15 a 18 ore UTC


142005Z 1420/1518 03008KT 6000 SCT002 BKN012
PROB40 1420/1512 0300 FG VV001
BECMG 1512/1514 FEW010 BKN020



MetMap, La meteo Aeronautica in un colpo d'occhio ! - Copyright ORBIFLY Dicembre 2007 - Disclaimer

ORBIFLY MET'MAP TEAM :

Programmazione e sviluppo : Alexandra Zaïnal
Concezione e sviluppo : Baudouin d'Aumeries
Co-Programmazione e sviluppo : Marc-Olivier Méhu
Supporto tecnico e logistico : Manuel Goepfert
Aiuto per la traduzione : Arnaldo La Scala

Contatto : metmap@orbifly.com




FONTI E CREDITI :

   NOAA